sensor_id;sensor_type;location;lat;lon;timestamp;P1;durP1;ratioP1;P2;durP2;ratioP2
62121;SDS011;48108;47.532;19.084;2023-01-31T05:03:01;4.93;;;1.95;;
62121;SDS011;48108;47.532;19.084;2023-01-31T05:06:04;6.95;;;2.25;;
62121;SDS011;48108;47.532;19.084;2023-01-31T05:09:07;3.45;;;1.90;;
62121;SDS011;48108;47.532;19.084;2023-01-31T05:12:10;2.30;;;1.92;;
62121;SDS011;48108;47.532;19.084;2023-01-31T05:15:13;1.90;;;1.70;;
62121;SDS011;48108;47.532;19.084;2023-01-31T05:18:16;1.45;;;1.40;;
62121;SDS011;48108;47.532;19.084;2023-01-31T05:21:19;3.97;;;1.85;;
62121;SDS011;48108;47.532;19.084;2023-01-31T05:24:22;6.53;;;1.75;;
62121;SDS011;48108;47.532;19.084;2023-01-31T05:27:26;3.35;;;1.90;;
62121;SDS011;48108;47.532;19.084;2023-01-31T05:30:29;2.35;;;1.52;;
62121;SDS011;48108;47.532;19.084;2023-01-31T05:33:33;2.60;;;2.00;;
62121;SDS011;48108;47.532;19.084;2023-01-31T05:36:36;3.90;;;2.00;;
62121;SDS011;48108;47.532;19.084;2023-01-31T05:39:39;5.47;;;2.22;;
62121;SDS011;48108;47.532;19.084;2023-01-31T05:42:42;3.37;;;2.40;;
62121;SDS011;48108;47.532;19.084;2023-01-31T05:45:46;2.95;;;2.47;;
62121;SDS011;48108;47.532;19.084;2023-01-31T05:48:49;8.27;;;2.37;;
62121;SDS011;48108;47.532;19.084;2023-01-31T05:51:53;4.78;;;2.40;;
62121;SDS011;48108;47.532;19.084;2023-01-31T05:54:55;3.30;;;2.83;;
62121;SDS011;48108;47.532;19.084;2023-01-31T05:57:58;6.45;;;2.83;;
62121;SDS011;48108;47.532;19.084;2023-01-31T06:01:03;3.45;;;2.67;;
62121;SDS011;48108;47.532;19.084;2023-01-31T06:04:06;2.40;;;2.20;;
62121;SDS011;48108;47.532;19.084;2023-01-31T06:07:08;6.30;;;2.75;;
62121;SDS011;48108;47.532;19.084;2023-01-31T06:10:11;5.60;;;2.85;;
62121;SDS011;48108;47.532;19.084;2023-01-31T06:13:14;5.93;;;2.45;;
62121;SDS011;48108;47.532;19.084;2023-01-31T06:16:17;4.45;;;2.55;;
62121;SDS011;48108;47.532;19.084;2023-01-31T06:19:20;2.45;;;2.08;;
62121;SDS011;48108;47.532;19.084;2023-01-31T06:22:26;5.75;;;2.53;;
62121;SDS011;48108;47.532;19.084;2023-01-31T06:25:29;5.20;;;2.50;;
62121;SDS011;48108;47.532;19.084;2023-01-31T06:28:35;3.72;;;2.42;;
62121;SDS011;48108;47.532;19.084;2023-01-31T06:31:37;4.20;;;2.58;;
62121;SDS011;48108;47.532;19.084;2023-01-31T06:34:41;2.62;;;2.30;;
62121;SDS011;48108;47.532;19.084;2023-01-31T06:37:43;2.58;;;2.33;;
62121;SDS011;48108;47.532;19.084;2023-01-31T06:40:46;6.15;;;2.37;;
62121;SDS011;48108;47.532;19.084;2023-01-31T06:43:49;3.95;;;2.55;;
62121;SDS011;48108;47.532;19.084;2023-01-31T06:46:52;4.70;;;2.62;;
62121;SDS011;48108;47.532;19.084;2023-01-31T06:49:56;4.62;;;2.08;;
62121;SDS011;48108;47.532;19.084;2023-01-31T06:52:59;3.90;;;2.17;;
62121;SDS011;48108;47.532;19.084;2023-01-31T06:56:01;2.83;;;1.85;;
62121;SDS011;48108;47.532;19.084;2023-01-31T06:59:04;2.37;;;2.17;;
62121;SDS011;48108;47.532;19.084;2023-01-31T07:02:08;3.33;;;1.95;;
62121;SDS011;48108;47.532;19.084;2023-01-31T07:05:13;3.90;;;2.05;;
62121;SDS011;48108;47.532;19.084;2023-01-31T07:08:16;3.12;;;2.10;;
62121;SDS011;48108;47.532;19.084;2023-01-31T07:11:21;3.45;;;1.80;;
62121;SDS011;48108;47.532;19.084;2023-01-31T07:14:24;3.72;;;2.05;;
62121;SDS011;48108;47.532;19.084;2023-01-31T07:17:29;4.15;;;2.10;;
62121;SDS011;48108;47.532;19.084;2023-01-31T07:20:32;5.85;;;2.35;;
62121;SDS011;48108;47.532;19.084;2023-01-31T07:27:03;2.40;;;1.95;;
62121;SDS011;48108;47.532;19.084;2023-01-31T07:30:06;5.95;;;2.10;;
62121;SDS011;48108;47.532;19.084;2023-01-31T07:33:09;4.75;;;1.90;;
62121;SDS011;48108;47.532;19.084;2023-01-31T07:36:14;3.37;;;2.22;;
62121;SDS011;48108;47.532;19.084;2023-01-31T07:39:21;4.53;;;1.98;;
62121;SDS011;48108;47.532;19.084;2023-01-31T07:42:26;2.53;;;1.80;;
62121;SDS011;48108;47.532;19.084;2023-01-31T07:45:29;3.20;;;2.62;;
62121;SDS011;48108;47.532;19.084;2023-01-31T07:48:33;3.22;;;1.90;;
62121;SDS011;48108;47.532;19.084;2023-01-31T07:51:36;2.90;;;2.00;;
62121;SDS011;48108;47.532;19.084;2023-01-31T07:54:41;4.35;;;2.62;;
62121;SDS011;48108;47.532;19.084;2023-01-31T07:57:43;4.20;;;2.00;;
62121;SDS011;48108;47.532;19.084;2023-01-31T08:00:47;2.92;;;1.95;;
62121;SDS011;48108;47.532;19.084;2023-01-31T08:04:09;5.62;;;2.42;;
62121;SDS011;48108;47.532;19.084;2023-01-31T08:07:23;2.55;;;1.92;;
62121;SDS011;48108;47.532;19.084;2023-01-31T08:10:28;6.40;;;2.37;;
62121;SDS011;48108;47.532;19.084;2023-01-31T08:13:32;3.55;;;2.12;;
62121;SDS011;48108;47.532;19.084;2023-01-31T08:16:36;2.53;;;2.08;;
62121;SDS011;48108;47.532;19.084;2023-01-31T08:19:39;1.80;;;1.70;;
62121;SDS011;48108;47.532;19.084;2023-01-31T08:22:42;3.67;;;2.12;;
62121;SDS011;48108;47.532;19.084;2023-01-31T08:25:45;5.30;;;1.90;;
62121;SDS011;48108;47.532;19.084;2023-01-31T08:28:49;5.75;;;2.10;;
62121;SDS011;48108;47.532;19.084;2023-01-31T08:31:52;2.25;;;1.90;;
62121;SDS011;48108;47.532;19.084;2023-01-31T08:34:56;2.75;;;1.95;;
62121;SDS011;48108;47.532;19.084;2023-01-31T08:38:02;2.80;;;1.92;;
62121;SDS011;48108;47.532;19.084;2023-01-31T08:41:18;3.90;;;2.08;;
62121;SDS011;48108;47.532;19.084;2023-01-31T08:44:22;4.55;;;2.10;;
62121;SDS011;48108;47.532;19.084;2023-01-31T08:47:25;4.28;;;2.08;;
62121;SDS011;48108;47.532;19.084;2023-01-31T08:50:29;2.75;;;1.90;;
62121;SDS011;48108;47.532;19.084;2023-01-31T08:53:38;2.60;;;1.75;;
62121;SDS011;48108;47.532;19.084;2023-01-31T08:56:47;3.95;;;1.90;;
62121;SDS011;48108;47.532;19.084;2023-01-31T08:59:50;2.50;;;2.10;;
62121;SDS011;48108;47.532;19.084;2023-01-31T09:02:53;6.85;;;2.03;;
62121;SDS011;48108;47.532;19.084;2023-01-31T09:05:58;3.83;;;1.90;;
62121;SDS011;48108;47.532;19.084;2023-01-31T09:09:02;7.03;;;2.30;;
62121;SDS011;48108;47.532;19.084;2023-01-31T09:12:05;2.97;;;1.83;;
62121;SDS011;48108;47.532;19.084;2023-01-31T09:15:08;4.50;;;2.15;;
62121;SDS011;48108;47.532;19.084;2023-01-31T09:18:12;4.70;;;2.10;;
62121;SDS011;48108;47.532;19.084;2023-01-31T09:21:17;7.18;;;2.20;;
62121;SDS011;48108;47.532;19.084;2023-01-31T09:24:21;4.50;;;2.60;;
62121;SDS011;48108;47.532;19.084;2023-01-31T09:27:24;4.00;;;1.83;;
62121;SDS011;48108;47.532;19.084;2023-01-31T09:30:27;6.40;;;2.65;;
62121;SDS011;48108;47.532;19.084;2023-01-31T09:33:31;2.35;;;2.05;;
62121;SDS011;48108;47.532;19.084;2023-01-31T09:36:35;5.15;;;1.77;;
62121;SDS011;48108;47.532;19.084;2023-01-31T09:39:38;2.92;;;1.83;;
62121;SDS011;48108;47.532;19.084;2023-01-31T09:42:41;2.33;;;1.75;;
62121;SDS011;48108;47.532;19.084;2023-01-31T09:45:46;6.50;;;2.25;;
62121;SDS011;48108;47.532;19.084;2023-01-31T09:48:52;5.40;;;1.70;;
62121;SDS011;48108;47.532;19.084;2023-01-31T09:51:58;6.10;;;1.92;;
62121;SDS011;48108;47.532;19.084;2023-01-31T09:55:05;4.35;;;2.10;;
62121;SDS011;48108;47.532;19.084;2023-01-31T10:05:23;3.45;;;2.00;;
62121;SDS011;48108;47.532;19.084;2023-01-31T10:11:55;5.35;;;2.20;;
62121;SDS011;48108;47.532;19.084;2023-01-31T10:18:16;4.12;;;2.10;;
62121;SDS011;48108;47.532;19.084;2023-01-31T10:21:25;3.65;;;2.20;;
62121;SDS011;48108;47.532;19.084;2023-01-31T10:24:38;4.00;;;1.95;;
62121;SDS011;48108;47.532;19.084;2023-01-31T10:27:47;4.90;;;1.98;;
62121;SDS011;48108;47.532;19.084;2023-01-31T10:37:28;2.37;;;2.05;;
62121;SDS011;48108;47.532;19.084;2023-01-31T10:40:38;2.83;;;2.03;;
62121;SDS011;48108;47.532;19.084;2023-01-31T10:43:49;5.03;;;2.00;;
62121;SDS011;48108;47.532;19.084;2023-01-31T10:46:58;2.83;;;1.58;;
62121;SDS011;48108;47.532;19.084;2023-01-31T10:50:16;4.50;;;1.70;;
62121;SDS011;48108;47.532;19.084;2023-01-31T10:53:38;3.45;;;1.85;;
62121;SDS011;48108;47.532;19.084;2023-01-31T10:57:04;4.65;;;2.05;;
62121;SDS011;48108;47.532;19.084;2023-01-31T11:00:11;3.33;;;1.80;;
62121;SDS011;48108;47.532;19.084;2023-01-31T11:03:24;3.47;;;1.80;;
62121;SDS011;48108;47.532;19.084;2023-01-31T11:06:27;4.78;;;2.10;;
62121;SDS011;48108;47.532;19.084;2023-01-31T11:09:35;4.18;;;1.70;;
62121;SDS011;48108;47.532;19.084;2023-01-31T11:12:41;4.32;;;1.80;;
62121;SDS011;48108;47.532;19.084;2023-01-31T11:15:55;3.20;;;1.73;;
62121;SDS011;48108;47.532;19.084;2023-01-31T11:19:00;3.08;;;1.50;;
62121;SDS011;48108;47.532;19.084;2023-01-31T11:22:06;5.55;;;2.00;;
62121;SDS011;48108;47.532;19.084;2023-01-31T11:25:14;3.78;;;1.52;;
62121;SDS011;48108;47.532;19.084;2023-01-31T11:28:26;3.08;;;1.23;;
62121;SDS011;48108;47.532;19.084;2023-01-31T11:31:37;5.97;;;2.08;;
62121;SDS011;48108;47.532;19.084;2023-01-31T11:34:57;3.05;;;1.50;;
62121;SDS011;48108;47.532;19.084;2023-01-31T11:38:24;2.42;;;1.40;;
62121;SDS011;48108;47.532;19.084;2023-01-31T11:41:35;2.15;;;1.58;;
62121;SDS011;48108;47.532;19.084;2023-01-31T11:51:25;2.87;;;1.45;;
62121;SDS011;48108;47.532;19.084;2023-01-31T11:54:32;5.15;;;1.52;;
62121;SDS011;48108;47.532;19.084;2023-01-31T11:57:36;4.30;;;1.60;;
62121;SDS011;48108;47.532;19.084;2023-01-31T12:00:43;3.80;;;1.62;;
62121;SDS011;48108;47.532;19.084;2023-01-31T12:04:01;3.62;;;1.45;;
62121;SDS011;48108;47.532;19.084;2023-01-31T12:07:20;5.20;;;1.92;;
62121;SDS011;48108;47.532;19.084;2023-01-31T12:10:39;3.08;;;1.58;;
62121;SDS011;48108;47.532;19.084;2023-01-31T12:13:44;2.72;;;1.70;;
62121;SDS011;48108;47.532;19.084;2023-01-31T12:16:55;2.67;;;1.25;;
62121;SDS011;48108;47.532;19.084;2023-01-31T12:58:29;3.23;;;1.90;;
62121;SDS011;48108;47.532;19.084;2023-01-31T13:02:26;4.25;;;2.00;;
62121;SDS011;48108;47.532;19.084;2023-01-31T13:05:45;1.50;;;1.40;;
62121;SDS011;48108;47.532;19.084;2023-01-31T13:08:55;2.33;;;1.40;;
62121;SDS011;48108;47.532;19.084;2023-01-31T13:12:17;1.70;;;1.23;;
62121;SDS011;48108;47.532;19.084;2023-01-31T13:15:36;1.67;;;1.58;;
62121;SDS011;48108;47.532;19.084;2023-01-31T13:18:47;2.92;;;1.92;;
62121;SDS011;48108;47.532;19.084;2023-01-31T13:21:53;4.72;;;1.83;;
62121;SDS011;48108;47.532;19.084;2023-01-31T13:28:35;2.90;;;1.40;;
62121;SDS011;48108;47.532;19.084;2023-01-31T13:31:46;3.67;;;1.73;;
62121;SDS011;48108;47.532;19.084;2023-01-31T13:38:24;3.78;;;1.90;;
62121;SDS011;48108;47.532;19.084;2023-01-31T13:41:32;4.47;;;1.92;;
62121;SDS011;48108;47.532;19.084;2023-01-31T13:44:36;3.37;;;1.95;;
62121;SDS011;48108;47.532;19.084;2023-01-31T13:47:46;3.35;;;1.80;;
62121;SDS011;48108;47.532;19.084;2023-01-31T13:51:07;3.58;;;1.60;;
62121;SDS011;48108;47.532;19.084;2023-01-31T13:54:22;2.90;;;1.65;;
62121;SDS011;48108;47.532;19.084;2023-01-31T13:57:41;2.83;;;2.12;;
62121;SDS011;48108;47.532;19.084;2023-01-31T14:01:05;3.33;;;1.83;;
62121;SDS011;48108;47.532;19.084;2023-01-31T14:07:13;5.25;;;1.55;;
62121;SDS011;48108;47.532;19.084;2023-01-31T14:13:38;2.00;;;1.77;;
62121;SDS011;48108;47.532;19.084;2023-01-31T14:16:43;5.70;;;2.00;;
62121;SDS011;48108;47.532;19.084;2023-01-31T14:26:34;3.42;;;1.80;;
62121;SDS011;48108;47.532;19.084;2023-01-31T14:30:19;3.15;;;2.20;;
62121;SDS011;48108;47.532;19.084;2023-01-31T14:33:23;2.35;;;1.60;;
62121;SDS011;48108;47.532;19.084;2023-01-31T14:36:38;5.85;;;2.40;;
62121;SDS011;48108;47.532;19.084;2023-01-31T14:39:59;3.85;;;2.15;;
62121;SDS011;48108;47.532;19.084;2023-01-31T14:50:58;3.97;;;2.12;;
62121;SDS011;48108;47.532;19.084;2023-01-31T14:53:51;2.47;;;1.92;;
62121;SDS011;48108;47.532;19.084;2023-01-31T15:00:34;5.40;;;2.20;;
62121;SDS011;48108;47.532;19.084;2023-01-31T15:06:54;4.40;;;2.35;;
62121;SDS011;48108;47.532;19.084;2023-01-31T15:09:58;5.18;;;2.50;;
62121;SDS011;48108;47.532;19.084;2023-01-31T15:13:01;7.80;;;2.75;;
62121;SDS011;48108;47.532;19.084;2023-01-31T15:19:29;6.90;;;2.83;;
62121;SDS011;48108;47.532;19.084;2023-01-31T15:22:42;3.58;;;2.20;;
62121;SDS011;48108;47.532;19.084;2023-01-31T15:25:46;3.75;;;2.28;;
62121;SDS011;48108;47.532;19.084;2023-01-31T15:28:51;3.37;;;2.37;;
62121;SDS011;48108;47.532;19.084;2023-01-31T15:31:56;4.28;;;2.30;;
62121;SDS011;48108;47.532;19.084;2023-01-31T15:35:06;3.97;;;2.53;;
62121;SDS011;48108;47.532;19.084;2023-01-31T15:38:27;3.25;;;2.37;;
62121;SDS011;48108;47.532;19.084;2023-01-31T15:41:52;3.28;;;2.22;;
62121;SDS011;48108;47.532;19.084;2023-01-31T16:27:06;4.55;;;3.00;;
62121;SDS011;48108;47.532;19.084;2023-01-31T16:30:18;6.18;;;2.90;;
62121;SDS011;48108;47.532;19.084;2023-01-31T16:33:21;5.30;;;2.60;;
62121;SDS011;48108;47.532;19.084;2023-01-31T16:36:30;7.50;;;3.20;;
62121;SDS011;48108;47.532;19.084;2023-01-31T16:39:37;5.78;;;3.15;;
62121;SDS011;48108;47.532;19.084;2023-01-31T16:42:43;8.15;;;3.72;;
62121;SDS011;48108;47.532;19.084;2023-01-31T16:46:05;6.55;;;3.12;;
62121;SDS011;48108;47.532;19.084;2023-01-31T16:49:24;5.12;;;3.12;;
62121;SDS011;48108;47.532;19.084;2023-01-31T16:52:29;7.30;;;3.35;;
62121;SDS011;48108;47.532;19.084;2023-01-31T16:55:32;6.72;;;3.37;;
